Time;durP1;ratioP1;P1;durP2;ratioP2;P2;SDS_P1;SDS_P2;PMS_P1;PMS_P2;Temp;Humidity;BMP_temperature;BMP_pressure;BME280_temperature;BME280_humidity;BME280_pressure;Samples;Min_cycle;Max_cycle;Signal;HPM_P1;HPM_P2
2023/07/28 00:00:08;;;;;;;2.88;2.63;;;16.10;75.00;;;;;;5008551;28;20030;-77
2023/07/28 00:02:33;;;;;;;4.18;2.42;;;16.10;74.20;;;;;;5018913;28;20018;-77
2023/07/28 00:04:59;;;;;;;3.42;3.05;;;16.10;74.00;;;;;;5060919;28;20036;-78
2023/07/28 00:07:25;;;;;;;3.45;2.97;;;16.20;74.90;;;;;;5007830;28;20030;-77
2023/07/28 00:09:50;;;;;;;4.10;2.83;;;16.20;74.50;;;;;;5007823;28;20037;-77
2023/07/28 00:12:16;;;;;;;4.90;2.85;;;16.20;73.90;;;;;;5008089;28;20061;-77
2023/07/28 00:14:41;;;;;;;3.03;2.45;;;16.20;74.30;;;;;;5005409;28;20034;-77
2023/07/28 00:17:07;;;;;;;4.78;3.05;;;16.20;74.50;;;;;;5012598;28;20463;-77
2023/07/28 00:19:33;;;;;;;3.83;2.78;;;16.30;74.80;;;;;;5012597;28;20030;-78
2023/07/28 00:21:58;;;;;;;3.20;2.67;;;16.30;74.10;;;;;;5011281;28;20029;-77
2023/07/28 00:24:24;;;;;;;2.53;2.20;;;16.30;74.30;;;;;;5012695;28;20022;-77
2023/07/28 00:26:49;;;;;;;6.90;2.65;;;16.30;75.20;;;;;;5012262;28;20071;-77
2023/07/28 00:29:15;;;;;;;5.18;2.30;;;16.30;77.40;;;;;;5011390;28;20026;-77
2023/07/28 00:31:40;;;;;;;4.65;2.80;;;16.30;79.70;;;;;;5012363;28;20029;-77
2023/07/28 00:34:06;;;;;;;5.25;2.65;;;16.20;80.50;;;;;;5011123;28;20022;-78
2023/07/28 00:36:32;;;;;;;2.50;2.30;;;16.10;83.70;;;;;;5011025;28;20042;-77
2023/07/28 00:38:58;;;;;;;4.40;3.30;;;16.10;87.40;;;;;;5012475;28;20109;-77
2023/07/28 00:41:23;;;;;;;2.78;2.30;;;16.00;91.90;;;;;;5010861;28;20022;-77
2023/07/28 00:43:49;;;;;;;4.10;2.65;;;16.00;95.60;;;;;;5012268;28;20399;-78
2023/07/28 00:46:16;;;;;;;3.05;2.75;;;16.00;95.30;;;;;;5012013;28;20029;-77
2023/07/28 00:48:42;;;;;;;5.07;3.25;;;15.90;96.60;;;;;;5012235;28;20026;-76
2023/07/28 00:51:09;;;;;;;3.28;2.97;;;15.80;97.10;;;;;;5012003;28;20026;-77
2023/07/28 00:53:34;;;;;;;5.22;2.70;;;15.80;97.20;;;;;;5010890;28;20046;-77
2023/07/28 00:56:05;;;;;;;4.22;3.38;;;15.70;97.00;;;;;;5010600;28;20065;-77
2023/07/28 00:58:31;;;;;;;5.35;3.20;;;15.70;99.90;;;;;;5010879;28;20025;-76
2023/07/28 01:00:56;;;;;;;4.85;2.75;;;15.70;99.90;;;;;;5011448;28;20022;-76
2023/07/28 01:03:23;;;;;;;3.70;3.13;;;15.70;99.90;;;;;;5055895;28;20023;-76
2023/07/28 01:06:20;;;;;;;3.85;3.30;;;15.60;99.90;;;;;;5029293;28;20483;-76
2023/07/28 01:09:00;;;;;;;3.00;2.80;;;15.60;99.90;;;;;;5011141;28;20473;-76
2023/07/28 01:11:26;;;;;;;3.47;3.17;;;15.60;99.90;;;;;;5011899;28;20053;-77
2023/07/28 01:13:51;;;;;;;5.03;3.13;;;15.60;99.90;;;;;;5011623;28;20053;-77
2023/07/28 01:16:17;;;;;;;5.20;3.45;;;15.50;99.90;;;;;;5010509;28;20026;-76
2023/07/28 01:18:43;;;;;;;4.18;3.10;;;15.50;99.90;;;;;;5011537;28;20032;-76
2023/07/28 01:21:19;;;;;;;3.35;3.05;;;15.50;99.90;;;;;;5011910;28;20025;-76
2023/07/28 01:24:11;;;;;;;3.30;3.00;;;15.50;99.90;;;;;;5011451;28;20109;-76
2023/07/28 01:26:38;;;;;;;3.33;2.95;;;15.50;99.90;;;;;;5010659;28;20057;-76
2023/07/28 01:29:05;;;;;;;3.72;3.33;;;15.50;99.90;;;;;;5010101;28;20458;-76
2023/07/28 01:31:31;;;;;;;3.85;2.72;;;15.40;99.90;;;;;;5010126;28;20029;-77
2023/07/28 01:33:56;;;;;;;3.42;2.95;;;15.40;99.90;;;;;;5011430;28;20030;-76
2023/07/28 01:36:22;;;;;;;4.13;2.90;;;15.40;99.90;;;;;;5011417;28;20034;-78
2023/07/28 01:38:48;;;;;;;4.90;3.20;;;15.40;99.90;;;;;;5010139;28;20014;-76
2023/07/28 01:41:13;;;;;;;3.78;3.35;;;15.40;99.90;;;;;;5011249;28;20036;-77
2023/07/28 01:43:39;;;;;;;3.38;2.67;;;15.40;99.90;;;;;;5010200;28;20026;-78
2023/07/28 01:46:05;;;;;;;3.35;3.05;;;15.40;99.90;;;;;;5009066;28;20030;-79
2023/07/28 01:48:30;;;;;;;3.40;2.83;;;15.40;99.90;;;;;;5009968;28;20025;-80
2023/07/28 01:50:56;;;;;;;2.92;2.72;;;15.40;99.90;;;;;;5011027;28;20057;-78
2023/07/28 01:53:22;;;;;;;5.45;3.35;;;15.40;99.90;;;;;;5011074;28;20046;-77
2023/07/28 01:55:47;;;;;;;2.70;2.50;;;15.40;99.90;;;;;;5010918;28;20100;-79
2023/07/28 01:58:13;;;;;;;4.88;2.97;;;15.40;99.90;;;;;;5011073;28;20036;-78
2023/07/28 02:00:38;;;;;;;3.75;2.70;;;15.40;98.60;;;;;;5010977;28;20079;-77
2023/07/28 02:03:04;;;;;;;3.58;2.85;;;15.40;99.20;;;;;;5042149;28;20043;-78
2023/07/28 02:05:30;;;;;;;4.25;2.90;;;15.40;98.80;;;;;;5041677;28;20022;-77
2023/07/28 02:07:56;;;;;;;3.90;3.10;;;15.50;98.80;;;;;;5010994;28;20476;-77
2023/07/28 02:10:23;;;;;;;4.65;2.47;;;15.60;99.40;;;;;;5010881;28;20048;-77
2023/07/28 02:12:51;;;;;;;5.15;2.65;;;15.60;99.90;;;;;;5009766;28;20388;-77
2023/07/28 02:15:17;;;;;;;3.88;2.60;;;15.70;99.90;;;;;;5010773;28;20080;-78
2023/07/28 02:17:42;;;;;;;2.72;2.40;;;15.70;99.90;;;;;;5009628;28;20061;-77
2023/07/28 02:20:12;;;;;;;5.00;3.05;;;15.70;99.90;;;;;;4998242;28;20023;-77
2023/07/28 02:22:38;;;;;;;4.47;2.78;;;15.70;99.90;;;;;;5010768;28;20022;-77
2023/07/28 02:25:04;;;;;;;4.82;2.88;;;15.70;99.90;;;;;;5009417;28;20116;-78
2023/07/28 02:27:30;;;;;;;5.97;4.03;;;15.70;99.90;;;;;;5009464;28;20104;-77
2023/07/28 02:29:56;;;;;;;7.82;3.30;;;15.80;99.90;;;;;;5009323;28;20022;-78
2023/07/28 02:32:21;;;;;;;6.93;3.95;;;15.80;99.90;;;;;;5009361;28;20025;-78
2023/07/28 02:34:47;;;;;;;7.32;4.13;;;15.80;99.90;;;;;;5009208;28;20042;-78
2023/07/28 02:37:15;;;;;;;7.38;4.10;;;15.80;99.90;;;;;;5010579;28;20026;-78
2023/07/28 02:39:41;;;;;;;7.45;4.05;;;15.80;99.90;;;;;;5007762;28;20030;-77
2023/07/28 02:42:07;;;;;;;6.72;4.10;;;15.80;99.90;;;;;;4998565;28;20033;-77
2023/07/28 02:44:33;;;;;;;7.18;4.05;;;15.90;99.90;;;;;;5008958;28;20039;-78
2023/07/28 02:46:58;;;;;;;5.25;3.85;;;15.90;99.90;;;;;;5009310;28;20053;-78
2023/07/28 02:49:24;;;;;;;5.65;3.72;;;15.90;99.90;;;;;;5010220;28;20114;-77
2023/07/28 02:51:50;;;;;;;4.63;3.15;;;15.90;99.90;;;;;;5010168;28;20029;-77
2023/07/28 02:54:15;;;;;;;5.00;3.30;;;15.80;99.90;;;;;;5010119;28;20087;-78
2023/07/28 02:56:41;;;;;;;3.25;2.72;;;15.90;99.90;;;;;;5010312;28;20037;-78
2023/07/28 02:59:06;;;;;;;5.65;3.20;;;15.90;99.90;;;;;;5008833;28;20625;-78
2023/07/28 03:01:35;;;;;;;3.00;2.40;;;15.80;99.90;;;;;;5010302;28;20033;-77
2023/07/28 03:04:02;;;;;;;4.35;2.70;;;15.80;99.90;;;;;;5072489;28;20028;-77
2023/07/28 03:06:28;;;;;;;4.22;3.05;;;15.80;99.90;;;;;;5010309;28;20071;-77
2023/07/28 03:08:53;;;;;;;3.00;2.70;;;15.90;99.90;;;;;;5009905;28;20025;-78
2023/07/28 03:11:19;;;;;;;4.70;3.13;;;15.90;99.90;;;;;;5009078;28;20022;-78
2023/07/28 03:13:45;;;;;;;8.02;3.40;;;15.90;99.90;;;;;;5008503;28;20034;-77
2023/07/28 03:16:11;;;;;;;3.60;3.03;;;15.90;99.90;;;;;;5010149;28;20475;-77
2023/07/28 03:18:37;;;;;;;4.72;3.13;;;15.90;99.90;;;;;;5009950;28;20022;-77
2023/07/28 03:21:03;;;;;;;3.72;3.00;;;15.90;99.90;;;;;;5008907;28;20033;-78
2023/07/28 03:23:28;;;;;;;4.05;3.50;;;16.00;99.90;;;;;;5009957;28;20041;-78
2023/07/28 03:25:54;;;;;;;5.85;3.22;;;15.90;99.90;;;;;;5008688;28;20030;-78
2023/07/28 03:28:20;;;;;;;4.50;3.13;;;16.00;99.90;;;;;;5008518;28;20014;-77
2023/07/28 03:30:46;;;;;;;3.95;3.20;;;16.00;99.90;;;;;;5008725;28;20081;-78
2023/07/28 03:33:11;;;;;;;4.53;3.22;;;15.90;99.90;;;;;;5009500;28;20046;-78
2023/07/28 03:35:37;;;;;;;3.28;2.90;;;15.90;99.90;;;;;;5009958;28;20115;-78
2023/07/28 03:38:03;;;;;;;4.18;3.05;;;15.80;99.90;;;;;;5009507;28;20026;-78
2023/07/28 03:40:28;;;;;;;3.92;2.90;;;15.80;99.90;;;;;;5009827;28;20026;-79
2023/07/28 03:42:54;;;;;;;4.72;2.90;;;15.80;99.90;;;;;;5008240;28;20484;-80
2023/07/28 03:45:20;;;;;;;4.88;3.45;;;15.80;99.90;;;;;;5009853;28;20105;-79
2023/07/28 03:47:46;;;;;;;3.17;2.88;;;15.80;99.90;;;;;;5008218;28;20458;-79
2023/07/28 03:50:11;;;;;;;3.95;2.80;;;15.80;99.90;;;;;;5011238;28;20030;-79
2023/07/28 03:52:37;;;;;;;4.68;2.83;;;15.80;99.90;;;;;;5011527;28;20411;-80
2023/07/28 03:55:03;;;;;;;4.47;2.70;;;15.90;99.90;;;;;;5011774;28;20120;-79
2023/07/28 03:57:29;;;;;;;3.45;2.80;;;15.90;99.90;;;;;;5011508;28;20562;-77
2023/07/28 03:59:54;;;;;;;3.75;3.13;;;15.90;99.90;;;;;;5013020;28;20114;-79
2023/07/28 04:02:20;;;;;;;3.25;2.45;;;15.80;99.90;;;;;;5011401;28;20392;-79
2023/07/28 04:04:46;;;;;;;6.10;3.03;;;15.80;99.90;;;;;;5075460;28;20022;-79
2023/07/28 04:07:11;;;;;;;4.00;3.17;;;15.90;99.90;;;;;;5012840;28;20219;-79
2023/07/28 04:09:37;;;;;;;3.90;2.90;;;15.90;99.90;;;;;;5011644;28;20517;-78
2023/07/28 04:12:03;;;;;;;2.97;2.67;;;15.80;99.90;;;;;;5012671;28;20372;-79
2023/07/28 04:14:28;;;;;;;4.65;2.97;;;15.80;99.90;;;;;;5012961;28;20608;-79
2023/07/28 04:16:54;;;;;;;4.45;3.25;;;15.80;99.90;;;;;;5012586;28;20030;-77
2023/07/28 04:19:20;;;;;;;6.75;3.35;;;15.80;99.90;;;;;;5012941;28;20471;-77
2023/07/28 04:21:45;;;;;;;5.07;3.90;;;15.80;99.90;;;;;;5012419;28;20049;-78
2023/07/28 04:24:11;;;;;;;3.78;3.10;;;15.80;99.90;;;;;;5012603;28;20018;-79
2023/07/28 04:26:37;;;;;;;5.50;3.45;;;15.80;99.90;;;;;;5011871;28;20030;-79
2023/07/28 04:29:03;;;;;;;5.57;3.42;;;15.80;99.90;;;;;;5011278;28;20053;-79
2023/07/28 04:31:29;;;;;;;4.50;3.25;;;15.80;99.90;;;;;;5012352;28;20062;-78
2023/07/28 04:33:54;;;;;;;5.82;3.40;;;15.80;99.90;;;;;;5006517;28;20105;-78
2023/07/28 04:36:20;;;;;;;4.03;3.30;;;15.80;99.90;;;;;;5010973;28;20033;-78
2023/07/28 04:38:46;;;;;;;6.32;3.30;;;15.90;99.90;;;;;;5011136;28;20046;-78
2023/07/28 04:41:11;;;;;;;3.78;3.00;;;15.90;99.90;;;;;;5004716;28;20021;-78
2023/07/28 04:43:37;;;;;;;4.03;3.10;;;15.90;99.90;;;;;;5011094;28;20026;-78
2023/07/28 04:46:02;;;;;;;3.65;3.35;;;15.90;99.90;;;;;;5010872;28;20067;-79
2023/07/28 04:48:28;;;;;;;5.30;2.80;;;16.00;99.90;;;;;;5010991;28;20463;-78
2023/07/28 04:50:54;;;;;;;3.80;3.40;;;16.00;99.90;;;;;;5006232;28;20105;-78
2023/07/28 04:53:19;;;;;;;3.58;2.88;;;16.10;99.30;;;;;;5012067;28;20394;-77
2023/07/28 04:55:45;;;;;;;5.60;3.22;;;16.10;97.80;;;;;;5010010;28;20045;-78
2023/07/28 04:58:11;;;;;;;3.65;2.63;;;16.20;96.50;;;;;;5004426;28;20022;-78
2023/07/28 05:00:37;;;;;;;3.83;2.72;;;16.20;97.70;;;;;;5005792;28;20079;-78
2023/07/28 05:03:02;;;;;;;4.95;2.72;;;16.30;98.70;;;;;;5038368;28;20023;-77
2023/07/28 05:05:29;;;;;;;6.50;2.90;;;16.30;97.50;;;;;;5033157;28;20023;-78
2023/07/28 05:07:55;;;;;;;4.97;3.70;;;16.30;96.10;;;;;;5007924;28;20018;-79
2023/07/28 05:10:21;;;;;;;3.90;3.33;;;16.40;97.10;;;;;;5010376;28;20036;-79
2023/07/28 05:12:46;;;;;;;5.55;3.22;;;16.40;96.30;;;;;;5011546;28;20467;-79
2023/07/28 05:15:15;;;;;;;3.92;2.90;;;16.40;97.80;;;;;;4999956;28;20563;-79
2023/07/28 05:17:41;;;;;;;3.10;2.58;;;16.50;96.60;;;;;;5089401;28;20098;-79
2023/07/28 05:20:07;;;;;;;3.75;2.85;;;16.50;95.80;;;;;;5083312;28;20483;-78
2023/07/28 05:22:32;;;;;;;5.70;2.90;;;16.50;96.70;;;;;;5040313;28;20773;-79
2023/07/28 05:24:58;;;;;;;3.20;2.95;;;16.60;96.20;;;;;;5062057;28;20050;-78
2023/07/28 05:27:24;;;;;;;3.38;2.50;;;16.50;96.90;;;;;;5015247;28;20022;-80
2023/07/28 05:29:49;;;;;;;5.55;2.72;;;16.50;96.60;;;;;;5000239;28;20030;-81
2023/07/28 05:32:15;;;;;;;4.15;2.83;;;16.60;96.10;;;;;;5006447;28;20022;-80
2023/07/28 05:34:44;;;;;;;4.53;2.83;;;16.60;96.70;;;;;;5012914;28;20019;-81
2023/07/28 05:37:10;;;;;;;4.60;2.80;;;16.60;96.20;;;;;;4994539;28;20026;-80
2023/07/28 05:39:36;;;;;;;3.30;2.63;;;16.60;97.90;;;;;;4996146;28;20021;-80
2023/07/28 05:42:01;;;;;;;4.45;2.90;;;16.70;97.40;;;;;;4995514;28;20061;-81
2023/07/28 05:44:27;;;;;;;2.88;2.58;;;16.70;97.40;;;;;;4999166;28;20018;-81
2023/07/28 05:46:53;;;;;;;3.15;2.85;;;16.80;96.60;;;;;;5002616;28;20404;-81
2023/07/28 05:49:18;;;;;;;3.15;2.78;;;16.80;97.30;;;;;;5007751;28;20018;-80
2023/07/28 05:51:44;;;;;;;3.85;2.90;;;16.90;95.20;;;;;;5070604;28;20461;-80
2023/07/28 05:54:10;;;;;;;3.38;3.00;;;17.00;96.10;;;;;;5001742;28;20046;-80
2023/07/28 05:56:35;;;;;;;4.47;2.78;;;17.00;94.30;;;;;;4995466;28;20480;-80
2023/07/28 05:59:01;;;;;;;7.18;3.17;;;17.10;92.80;;;;;;5014897;28;20361;-80
2023/07/28 06:01:27;;;;;;;5.45;3.13;;;17.10;93.30;;;;;;5003584;28;20079;-80
2023/07/28 06:03:55;;;;;;;3.92;2.60;;;17.20;94.20;;;;;;5015224;28;20518;-80
2023/07/28 06:06:21;;;;;;;3.83;2.53;;;17.20;93.30;;;;;;5023824;28;20405;-80
2023/07/28 06:08:47;;;;;;;5.65;3.28;;;17.20;93.10;;;;;;5008468;28;20022;-81
2023/07/28 06:11:13;;;;;;;2.88;2.65;;;17.30;94.80;;;;;;5004817;28;20353;-82
2023/07/28 06:13:39;;;;;;;5.15;2.88;;;17.30;94.50;;;;;;5001439;28;20079;-80
2023/07/28 06:16:04;;;;;;;10.13;3.08;;;17.30;94.60;;;;;;5001616;28;20048;-80
2023/07/28 06:18:30;;;;;;;3.22;2.72;;;17.30;97.50;;;;;;4989580;28;20038;-80
2023/07/28 06:20:55;;;;;;;4.07;2.53;;;17.30;96.00;;;;;;4995580;28;20026;-80
2023/07/28 06:23:21;;;;;;;3.75;2.67;;;17.30;95.90;;;;;;4989567;28;20035;-80
2023/07/28 06:25:47;;;;;;;6.25;2.60;;;17.20;97.10;;;;;;5000630;28;20022;-80
2023/07/28 06:28:13;;;;;;;4.65;2.90;;;17.20;97.00;;;;;;4989203;28;20035;-80
2023/07/28 06:30:39;;;;;;;4.40;2.92;;;17.30;99.50;;;;;;4995571;28;20033;-79
2023/07/28 06:33:08;;;;;;;5.00;2.92;;;17.20;95.50;;;;;;4989662;28;20062;-80
2023/07/28 06:35:34;;;;;;;7.38;3.25;;;17.20;97.00;;;;;;5057144;28;20118;-80
2023/07/28 06:38:02;;;;;;;2.75;2.42;;;17.20;98.10;;;;;;4990930;28;20129;-80
2023/07/28 06:40:27;;;;;;;4.07;2.83;;;17.10;97.60;;;;;;4998488;28;20027;-80
2023/07/28 06:42:53;;;;;;;3.35;2.95;;;17.10;98.50;;;;;;5055825;28;20216;-80
2023/07/28 06:45:19;;;;;;;2.60;2.40;;;17.10;99.90;;;;;;5000108;28;20375;-80
2023/07/28 06:47:45;;;;;;;4.88;3.05;;;17.10;99.90;;;;;;4992991;28;20072;-80
2023/07/28 06:50:11;;;;;;;3.25;2.42;;;17.10;99.90;;;;;;5000739;28;20418;-80
2023/07/28 06:52:37;;;;;;;4.22;2.70;;;17.00;99.90;;;;;;4992087;28;20046;-80
2023/07/28 06:55:03;;;;;;;2.55;2.30;;;16.90;99.90;;;;;;4993026;28;20554;-80
2023/07/28 06:57:30;;;;;;;4.68;3.05;;;16.80;99.90;;;;;;4994899;28;20031;-80
2023/07/28 06:59:56;;;;;;;3.97;3.00;;;16.60;99.90;;;;;;5006642;28;20083;-79
2023/07/28 07:02:21;;;;;;;6.95;3.05;;;16.40;99.90;;;;;;4991677;28;20019;-80
2023/07/28 07:04:47;;;;;;;3.10;2.88;;;16.10;99.90;;;;;;4998856;28;20056;-79
2023/07/28 07:07:13;;;;;;;2.85;2.65;;;16.00;99.90;;;;;;4992728;28;20033;-80
2023/07/28 07:09:39;;;;;;;5.32;2.70;;;15.90;99.90;;;;;;4992265;28;20042;-80
2023/07/28 07:12:05;;;;;;;4.18;3.25;;;15.90;99.90;;;;;;4991664;28;20048;-80
2023/07/28 07:14:31;;;;;;;3.30;2.88;;;15.80;99.90;;;;;;5028110;28;20024;-80
2023/07/28 07:16:56;;;;;;;3.22;2.88;;;15.90;99.90;;;;;;5016972;28;20030;-80
2023/07/28 07:19:24;;;;;;;6.70;3.60;;;15.80;99.90;;;;;;4988463;28;20379;-79
2023/07/28 07:21:50;;;;;;;4.03;3.28;;;15.80;99.90;;;;;;5001795;28;20490;-81
2023/07/28 07:24:16;;;;;;;3.50;3.20;;;15.80;99.90;;;;;;4995874;28;20387;-80
2023/07/28 07:26:42;;;;;;;4.75;3.38;;;15.90;99.90;;;;;;5011528;28;20030;-80
2023/07/28 07:29:09;;;;;;;4.07;2.92;;;15.80;99.90;;;;;;5002506;28;20038;-80
2023/07/28 07:31:35;;;;;;;5.47;3.50;;;15.80;99.90;;;;;;4994983;28;20026;-80
2023/07/28 07:34:00;;;;;;;4.15;3.10;;;15.80;99.90;;;;;;4999549;28;20104;-80
2023/07/28 07:36:26;;;;;;;4.78;3.53;;;15.90;99.90;;;;;;5052862;28;20045;-80
2023/07/28 07:38:52;;;;;;;4.22;3.50;;;15.90;99.90;;;;;;5002067;28;20121;-80
2023/07/28 07:41:20;;;;;;;5.10;3.33;;;15.90;99.90;;;;;;5009215;28;20018;-80
2023/07/28 07:43:47;;;;;;;5.00;4.00;;;15.90;99.90;;;;;;4995392;28;20453;-80
2023/07/28 07:46:14;;;;;;;5.55;4.15;;;15.90;99.90;;;;;;5000431;28;20073;-80
2023/07/28 07:48:39;;;;;;;3.95;3.65;;;15.90;99.90;;;;;;4993235;28;20078;-80
2023/07/28 07:51:05;;;;;;;4.82;3.45;;;16.00;99.90;;;;;;5038655;28;20057;-80
2023/07/28 07:53:31;;;;;;;7.43;4.22;;;15.90;99.90;;;;;;4995933;28;20038;-80
2023/07/28 07:55:56;;;;;;;6.50;3.42;;;15.90;99.90;;;;;;5000365;28;20061;-80
2023/07/28 07:58:22;;;;;;;5.30;4.60;;;15.80;99.90;;;;;;5002370;28;20559;-80
2023/07/28 08:00:48;;;;;;;7.70;4.78;;;15.80;99.90;;;;;;4997824;28;20080;-80
2023/07/28 08:03:13;;;;;;;6.18;4.28;;;15.70;99.90;;;;;;5026105;28;20053;-80
2023/07/28 08:05:39;;;;;;;4.40;4.00;;;15.60;99.90;;;;;;5001277;28;20031;-80
2023/07/28 08:08:07;;;;;;;5.45;4.20;;;15.60;99.90;;;;;;4999103;28;20034;-80
2023/07/28 08:10:33;;;;;;;6.78;4.88;;;15.70;99.90;;;;;;5006414;28;20495;-80
2023/07/28 08:12:59;;;;;;;5.90;4.82;;;15.60;99.90;;;;;;4999809;28;20023;-80
2023/07/28 08:15:25;;;;;;;6.60;5.22;;;15.60;99.90;;;;;;5014052;28;20583;-80
2023/07/28 08:17:52;;;;;;;5.93;4.35;;;15.60;99.90;;;;;;5006677;28;20148;-80
2023/07/28 08:20:17;;;;;;;6.43;4.45;;;15.60;99.90;;;;;;4999189;28;20499;-80
2023/07/28 08:22:43;;;;;;;4.80;4.30;;;15.60;99.90;;;;;;5004219;28;20041;-80
2023/07/28 08:25:09;;;;;;;5.55;5.03;;;15.60;99.90;;;;;;5004353;28;20034;-80
2023/07/28 08:27:34;;;;;;;5.75;5.13;;;15.70;99.90;;;;;;4999221;28;20131;-79
2023/07/28 08:30:00;;;;;;;4.10;3.63;;;15.70;99.90;;;;;;4998758;28;20052;-80
2023/07/28 08:32:25;;;;;;;5.85;3.90;;;15.60;99.90;;;;;;5002984;28;20022;-79
2023/07/28 08:34:51;;;;;;;6.20;4.78;;;15.60;99.90;;;;;;4992964;28;20123;-79
2023/07/28 08:37:17;;;;;;;6.05;5.07;;;15.60;99.90;;;;;;5009592;28;20033;-79
2023/07/28 08:39:42;;;;;;;6.97;5.65;;;15.70;99.90;;;;;;5067608;28;20036;-79
2023/07/28 08:42:08;;;;;;;5.68;5.05;;;15.80;99.90;;;;;;5008128;28;20130;-80
2023/07/28 08:44:35;;;;;;;7.05;6.35;;;15.80;99.90;;;;;;5012840;28;20026;-80
2023/07/28 08:47:05;;;;;;;9.02;7.13;;;15.80;99.90;;;;;;5010584;28;20022;-80
2023/07/28 08:49:36;;;;;;;7.70;7.00;;;15.80;99.90;;;;;;5001758;28;20034;-80
2023/07/28 08:52:03;;;;;;;8.20;7.40;;;15.90;99.90;;;;;;4992072;28;20026;-80
2023/07/28 08:54:29;;;;;;;9.10;7.43;;;15.90;99.90;;;;;;5000772;28;20037;-80
2023/07/28 08:56:57;;;;;;;6.82;5.97;;;15.90;99.90;;;;;;4995466;28;20039;-80
2023/07/28 08:59:26;;;;;;;6.43;5.72;;;16.00;99.90;;;;;;4990294;28;20026;-81
2023/07/28 09:01:53;;;;;;;8.40;5.78;;;16.00;99.90;;;;;;4994661;28;20018;-80
2023/07/28 09:04:21;;;;;;;6.07;5.47;;;16.10;99.90;;;;;;4995481;28;20395;-80
2023/07/28 09:06:48;;;;;;;8.25;6.22;;;16.10;99.90;;;;;;4995757;28;20417;-80
2023/07/28 09:09:15;;;;;;;6.22;5.63;;;16.20;99.90;;;;;;4992354;28;20742;-80
2023/07/28 09:11:48;;;;;;;7.03;6.25;;;16.20;99.90;;;;;;4996456;28;20507;-81
2023/07/28 09:14:19;;;;;;;9.13;6.78;;;16.20;99.90;;;;;;5004814;28;20695;-80
2023/07/28 09:16:45;;;;;;;9.13;7.10;;;16.30;99.90;;;;;;4998139;28;20109;-80
2023/07/28 09:19:11;;;;;;;9.93;6.47;;;16.30;99.90;;;;;;5001319;28;20054;-80
2023/07/28 09:21:46;;;;;;;7.80;6.38;;;16.40;99.90;;;;;;5001857;28;20103;-80
2023/07/28 09:24:13;;;;;;;9.57;6.60;;;16.50;99.90;;;;;;4990783;28;20069;-81
2023/07/28 09:26:40;;;;;;;8.90;6.88;;;16.50;99.90;;;;;;4992084;28;20029;-81
2023/07/28 09:29:17;;;;;;;10.65;6.82;;;16.70;99.90;;;;;;4998312;28;20445;-81
2023/07/28 09:31:44;;;;;;;10.02;7.55;;;16.80;99.90;;;;;;4996758;28;20041;-81
2023/07/28 09:34:11;;;;;;;9.27;7.50;;;16.80;99.90;;;;;;4992220;28;20476;-81
2023/07/28 09:36:40;;;;;;;9.85;6.80;;;16.90;99.90;;;;;;4992028;28;20605;-81
2023/07/28 09:39:09;;;;;;;7.53;6.70;;;16.90;99.90;;;;;;4999341;28;20074;-81
2023/07/28 09:41:37;;;;;;;9.13;7.32;;;17.00;99.90;;;;;;5002928;28;20059;-80
2023/07/28 09:44:03;;;;;;;8.93;7.10;;;17.00;99.90;;;;;;5000414;28;20395;-80
2023/07/28 09:46:30;;;;;;;9.68;6.70;;;17.10;99.90;;;;;;5002560;28;20029;-80
2023/07/28 09:48:58;;;;;;;6.70;6.10;;;17.20;99.90;;;;;;5001932;28;20033;-81
2023/07/28 09:51:30;;;;;;;8.50;7.43;;;17.30;99.90;;;;;;4992536;28;20022;-80
2023/07/28 09:54:02;;;;;;;7.70;5.82;;;17.30;99.90;;;;;;4991278;28;20042;-80
2023/07/28 09:56:31;;;;;;;6.82;5.03;;;17.40;99.90;;;;;;5004336;28;20430;-80
2023/07/28 09:58:59;;;;;;;7.78;5.78;;;17.40;99.90;;;;;;5000623;28;20030;-80
2023/07/28 10:01:25;;;;;;;5.43;4.93;;;17.40;99.90;;;;;;5003808;28;20030;-80
2023/07/28 10:03:51;;;;;;;7.00;5.70;;;17.40;99.90;;;;;;5004966;28;20045;-80
2023/07/28 10:06:22;;;;;;;5.85;4.85;;;17.50;99.90;;;;;;4996166;28;20018;-81
2023/07/28 10:08:48;;;;;;;6.45;4.68;;;17.60;99.90;;;;;;4998728;28;20034;-80
2023/07/28 10:11:16;;;;;;;5.55;4.65;;;17.70;99.90;;;;;;4995016;28;20027;-80
2023/07/28 10:13:43;;;;;;;6.22;4.95;;;17.80;99.90;;;;;;4993254;28;20083;-80
2023/07/28 10:16:09;;;;;;;6.72;4.90;;;17.90;99.90;;;;;;4994185;28;20034;-80
2023/07/28 10:18:36;;;;;;;6.68;4.55;;;18.00;99.90;;;;;;4992845;28;20034;-80
2023/07/28 10:21:06;;;;;;;7.30;4.40;;;18.10;99.90;;;;;;4993940;28;20030;-79
2023/07/28 10:23:37;;;;;;;5.35;4.40;;;18.20;99.90;;;;;;4999266;28;20046;-80
2023/07/28 10:26:06;;;;;;;5.70;4.55;;;18.20;99.90;;;;;;4989979;28;20097;-80
2023/07/28 10:28:38;;;;;;;6.75;4.72;;;18.30;99.90;;;;;;4989171;28;20529;-78
2023/07/28 10:31:12;;;;;;;5.15;3.92;;;18.40;99.90;;;;;;4989787;28;20109;-79
2023/07/28 10:33:40;;;;;;;5.18;4.07;;;18.50;99.90;;;;;;4996608;28;20563;-78
2023/07/28 10:36:23;;;;;;;6.30;4.32;;;18.60;99.90;;;;;;5010556;28;20038;-77
2023/07/28 10:39:12;;;;;;;6.60;4.18;;;18.60;99.90;;;;;;5023155;28;20480;-79
2023/07/28 10:41:37;;;;;;;4.85;4.35;;;18.60;99.90;;;;;;5002540;28;20071;-78
2023/07/28 10:44:03;;;;;;;5.10;4.22;;;18.60;99.90;;;;;;5001451;28;20029;-78
2023/07/28 10:46:29;;;;;;;4.47;4.07;;;18.60;99.90;;;;;;5002360;28;20069;-79
2023/07/28 10:48:55;;;;;;;4.85;4.10;;;18.70;99.90;;;;;;5002471;28;20034;-79
2023/07/28 10:51:32;;;;;;;4.72;4.03;;;18.90;99.90;;;;;;4997160;28;20387;-79
2023/07/28 10:53:59;;;;;;;4.53;3.83;;;19.00;99.90;;;;;;4996269;28;20562;-79
2023/07/28 10:56:26;;;;;;;7.18;4.00;;;19.10;99.90;;;;;;4994756;28;20065;-78
2023/07/28 10:59:01;;;;;;;4.10;3.70;;;19.20;99.90;;;;;;4996762;28;20039;-78
2023/07/28 11:01:38;;;;;;;4.72;3.58;;;19.40;99.90;;;;;;5000564;28;20037;-79
2023/07/28 11:04:15;;;;;;;3.95;3.53;;;19.60;99.90;;;;;;4989473;28;20406;-79
2023/07/28 11:06:49;;;;;;;4.78;3.33;;;19.80;99.90;;;;;;4990638;28;20101;-78
2023/07/28 11:09:17;;;;;;;3.53;3.22;;;19.90;99.90;;;;;;5000967;28;20037;-79
2023/07/28 11:11:43;;;;;;;4.85;3.60;;;19.90;99.90;;;;;;4998740;28;20038;-78
2023/07/28 11:14:09;;;;;;;4.72;3.60;;;20.00;99.90;;;;;;4989671;28;20034;-79
2023/07/28 11:16:36;;;;;;;7.10;3.95;;;20.10;99.90;;;;;;4991154;28;20491;-77
2023/07/28 11:19:16;;;;;;;5.22;4.20;;;20.40;99.90;;;;;;4999740;28;20053;-78
2023/07/28 11:21:43;;;;;;;5.93;3.88;;;20.40;99.90;;;;;;4998049;28;20109;-78
2023/07/28 11:24:09;;;;;;;8.55;3.30;;;20.10;99.90;;;;;;4991030;28;20041;-78
2023/07/28 11:26:39;;;;;;;6.78;3.72;;;20.10;99.90;;;;;;4989388;28;20015;-78
2023/07/28 11:29:05;;;;;;;4.43;3.60;;;20.20;99.90;;;;;;4989301;28;20026;-79
2023/07/28 11:31:33;;;;;;;3.83;3.28;;;20.20;99.90;;;;;;4989934;28;20041;-78
2023/07/28 11:33:58;;;;;;;4.07;3.58;;;20.20;99.90;;;;;;4993480;28;20028;-78
2023/07/28 11:36:29;;;;;;;3.33;2.90;;;20.30;99.90;;;;;;4995153;28;20176;-79
2023/07/28 11:38:57;;;;;;;4.50;2.70;;;20.30;99.90;;;;;;5000003;28;20053;-79
2023/07/28 11:41:23;;;;;;;3.53;2.88;;;20.40;99.90;;;;;;5013423;28;20482;-79
2023/07/28 11:43:50;;;;;;;5.18;3.28;;;20.60;99.90;;;;;;5045414;28;20054;-79
2023/07/28 11:46:39;;;;;;;2.80;2.60;;;20.70;99.90;;;;;;5015827;28;20121;-79
2023/07/28 11:49:25;;;;;;;3.60;2.90;;;21.00;99.90;;;;;;5006822;28;20030;-80
2023/07/28 11:51:53;;;;;;;3.85;2.78;;;21.10;99.90;;;;;;4991583;28;20041;-80
2023/07/28 11:54:22;;;;;;;4.85;2.90;;;21.30;99.90;;;;;;4998371;28;20026;-80
2023/07/28 11:56:49;;;;;;;3.83;3.47;;;21.40;99.90;;;;;;4992946;28;20091;-80
2023/07/28 11:59:17;;;;;;;3.72;2.42;;;21.30;99.90;;;;;;4997217;28;20022;-80
2023/07/28 12:01:55;;;;;;;2.72;2.53;;;21.30;99.90;;;;;;4989644;28;20034;-80
2023/07/28 12:04:25;;;;;;;2.70;2.50;;;21.50;99.90;;;;;;4996301;28;20026;-80
2023/07/28 12:07:07;;;;;;;3.85;2.45;;;21.80;99.90;;;;;;4993892;28;20049;-80
2023/07/28 12:09:53;;;;;;;2.55;2.17;;;21.80;99.90;;;;;;4994095;28;20072;-80
2023/07/28 12:12:23;;;;;;;3.15;2.50;;;21.90;99.90;;;;;;4992762;28;20564;-79
2023/07/28 12:14:53;;;;;;;3.88;3.58;;;22.10;99.90;;;;;;4992788;28;20095;-79
2023/07/28 12:17:20;;;;;;;3.08;2.40;;;21.90;97.70;;;;;;4993961;28;20030;-80
2023/07/28 12:20:10;;;;;;;4.30;2.75;;;21.80;97.80;;;;;;4993165;28;20026;-80
2023/07/28 12:22:45;;;;;;;2.65;2.45;;;21.90;99.20;;;;;;4992169;28;20034;-80
2023/07/28 12:25:12;;;;;;;2.95;2.70;;;22.00;99.90;;;;;;4994874;28;20073;-80
2023/07/28 12:27:38;;;;;;;3.00;2.70;;;22.20;99.90;;;;;;4992480;28;20559;-80
2023/07/28 12:30:04;;;;;;;3.92;2.42;;;22.30;99.90;;;;;;4993271;28;20113;-81
2023/07/28 12:32:30;;;;;;;2.67;2.17;;;22.40;99.90;;;;;;4997600;28;20395;-80
2023/07/28 12:34:56;;;;;;;2.97;2.70;;;22.30;99.90;;;;;;5000017;28;20026;-80
2023/07/28 12:37:21;;;;;;;2.13;1.98;;;22.30;99.90;;;;;;5010703;28;20026;-80
2023/07/28 12:39:48;;;;;;;2.80;2.45;;;22.30;99.90;;;;;;4997941;28;20018;-80
2023/07/28 12:42:14;;;;;;;4.28;2.42;;;22.50;98.40;;;;;;5002375;28;20083;-80
2023/07/28 12:44:41;;;;;;;2.65;2.45;;;22.60;94.50;;;;;;4995671;28;20022;-80